Time;durP1;ratioP1;P1;durP2;ratioP2;P2;SDS_P1;SDS_P2;PMS_P1;PMS_P2;Temp;Humidity;BMP_temperature;BMP_pressure;BME280_temperature;BME280_humidity;BME280_pressure;Samples;Min_cycle;Max_cycle;Signal;HPM_P1;HPM_P2
2022/12/19 00:01:58;;;;;;;40.65;20.08;;;;;;;;;;5059982;28;20049;-71
2022/12/19 00:04:24;;;;;;;53.55;22.77;;;;;;;;;;5061783;28;20055;-71
2022/12/19 00:06:51;;;;;;;43.20;21.20;;;;;;;;;;5047428;28;20046;-72
2022/12/19 00:09:17;;;;;;;47.45;22.33;;;;;;;;;;5057853;28;20049;-72
2022/12/19 00:11:43;;;;;;;46.25;21.98;;;;;;;;;;5060312;28;20045;-72
2022/12/19 00:14:10;;;;;;;40.13;21.58;;;;;;;;;;5061814;28;20514;-71
2022/12/19 00:16:36;;;;;;;50.17;21.75;;;;;;;;;;5055892;28;20058;-71
2022/12/19 00:19:03;;;;;;;45.85;21.85;;;;;;;;;;5055815;28;20160;-72
2022/12/19 00:21:31;;;;;;;41.85;21.23;;;;;;;;;;5058469;28;20045;-72
2022/12/19 00:24:00;;;;;;;45.65;23.10;;;;;;;;;;5056791;28;20064;-72
2022/12/19 00:26:28;;;;;;;44.55;22.83;;;;;;;;;;5061265;28;20076;-72
2022/12/19 00:28:57;;;;;;;52.63;24.55;;;;;;;;;;5051652;28;20057;-72
2022/12/19 00:31:24;;;;;;;41.30;21.63;;;;;;;;;;5054867;28;20041;-72
2022/12/19 00:33:51;;;;;;;49.65;23.70;;;;;;;;;;5065032;28;20053;-73
2022/12/19 00:36:21;;;;;;;42.70;22.42;;;;;;;;;;5056308;28;20053;-72
2022/12/19 00:38:50;;;;;;;42.10;21.27;;;;;;;;;;5066390;28;20045;-73
2022/12/19 00:41:24;;;;;;;46.42;23.00;;;;;;;;;;5058363;28;20084;-71
2022/12/19 00:43:55;;;;;;;43.67;22.75;;;;;;;;;;5053733;28;20053;-71
2022/12/19 00:46:22;;;;;;;48.33;22.25;;;;;;;;;;5063864;28;20085;-71
2022/12/19 00:48:48;;;;;;;45.85;22.83;;;;;;;;;;5066103;28;20059;-72
2022/12/19 00:51:16;;;;;;;42.20;21.95;;;;;;;;;;5064116;28;20144;-71
2022/12/19 00:53:43;;;;;;;43.72;22.00;;;;;;;;;;5059076;28;20061;-72
2022/12/19 00:56:11;;;;;;;46.92;22.58;;;;;;;;;;5046848;28;20053;-71
2022/12/19 00:58:38;;;;;;;47.83;22.92;;;;;;;;;;5045064;28;20446;-72
2022/12/19 01:01:13;;;;;;;36.85;19.67;;;;;;;;;;5049346;28;20092;-72
2022/12/19 01:03:40;;;;;;;46.10;22.83;;;;;;;;;;5064987;28;20087;-71
2022/12/19 01:06:27;;;;;;;39.42;19.73;;;;;;;;;;5063764;28;20052;-72
2022/12/19 01:08:54;;;;;;;35.55;20.20;;;;;;;;;;5053725;28;20597;-72
2022/12/19 01:12:44;;;;;;;39.20;21.05;;;;;;;;;;5064092;28;20049;-72
2022/12/19 01:14:07;;;;;;;40.70;19.55;;;;;;;;;;5044264;28;20080;-72
2022/12/19 01:16:33;;;;;;;41.72;19.63;;;;;;;;;;5060866;28;20418;-72
2022/12/19 01:19:00;;;;;;;35.85;18.40;;;;;;;;;;5066369;28;20080;-72
2022/12/19 01:21:28;;;;;;;35.22;19.33;;;;;;;;;;5062761;28;20136;-71
2022/12/19 01:23:55;;;;;;;41.45;21.60;;;;;;;;;;5046527;28;20049;-71
2022/12/19 01:26:21;;;;;;;37.92;21.08;;;;;;;;;;5063307;28;20152;-71
2022/12/19 01:28:47;;;;;;;44.72;21.02;;;;;;;;;;5060284;28;20070;-70
2022/12/19 01:31:14;;;;;;;47.35;23.27;;;;;;;;;;5062229;28;20060;-71
2022/12/19 01:33:41;;;;;;;41.17;22.70;;;;;;;;;;5056454;28;20050;-71
2022/12/19 01:36:09;;;;;;;42.80;22.20;;;;;;;;;;5063985;28;20061;-71
2022/12/19 01:38:36;;;;;;;45.30;22.08;;;;;;;;;;5049184;28;20084;-71
2022/12/19 01:41:02;;;;;;;45.97;22.65;;;;;;;;;;5060495;28;20045;-71
2022/12/19 01:43:29;;;;;;;42.83;21.80;;;;;;;;;;5047764;28;20499;-71
2022/12/19 01:45:57;;;;;;;45.65;22.98;;;;;;;;;;5063537;28;20148;-72
2022/12/19 01:48:29;;;;;;;42.10;23.00;;;;;;;;;;5060279;28;20049;-71
2022/12/19 01:50:57;;;;;;;48.70;23.02;;;;;;;;;;5060186;28;20057;-70
2022/12/19 01:53:29;;;;;;;48.03;23.08;;;;;;;;;;5070563;28;20052;-71
2022/12/19 01:55:55;;;;;;;45.58;23.00;;;;;;;;;;5082678;28;20049;-71
2022/12/19 01:58:22;;;;;;;39.15;22.05;;;;;;;;;;5045160;28;20162;-72
2022/12/19 02:00:48;;;;;;;52.13;24.55;;;;;;;;;;5063832;28;20061;-72
2022/12/19 02:03:21;;;;;;;52.05;24.25;;;;;;;;;;5048270;28;20111;-71
2022/12/19 02:05:48;;;;;;;47.38;24.67;;;;;;;;;;5047056;28;20519;-71
2022/12/19 02:08:15;;;;;;;48.70;25.50;;;;;;;;;;5050318;28;20050;-72
2022/12/19 02:10:41;;;;;;;53.83;26.38;;;;;;;;;;5055634;28;20538;-71
2022/12/19 02:13:08;;;;;;;56.67;24.23;;;;;;;;;;5057715;28;20045;-71
2022/12/19 02:15:42;;;;;;;54.65;25.60;;;;;;;;;;5049493;28;20053;-71
2022/12/19 02:18:14;;;;;;;52.63;25.45;;;;;;;;;;5052377;28;20139;-71
2022/12/19 02:20:56;;;;;;;50.78;24.67;;;;;;;;;;5064083;28;20495;-70
2022/12/19 02:23:41;;;;;;;56.00;24.40;;;;;;;;;;5071687;28;20102;-70
2022/12/19 02:26:19;;;;;;;57.42;25.40;;;;;;;;;;5056383;28;20076;-71
2022/12/19 02:29:07;;;;;;;63.65;26.65;;;;;;;;;;5063075;28;20064;-71
2022/12/19 02:31:35;;;;;;;60.00;25.92;;;;;;;;;;5048649;28;20061;-71
2022/12/19 02:34:04;;;;;;;52.13;26.05;;;;;;;;;;5052902;28;20081;-71
2022/12/19 02:36:36;;;;;;;55.47;24.05;;;;;;;;;;5058565;28;20859;-70
2022/12/19 02:39:23;;;;;;;51.45;23.02;;;;;;;;;;5059564;28;20127;-69
2022/12/19 02:41:54;;;;;;;51.03;23.75;;;;;;;;;;5063058;28;20049;-70
2022/12/19 02:44:28;;;;;;;48.03;23.80;;;;;;;;;;5056869;28;20157;-70
2022/12/19 02:46:56;;;;;;;55.35;24.40;;;;;;;;;;5061495;28;20052;-70
2022/12/19 02:49:23;;;;;;;51.17;25.20;;;;;;;;;;5076032;28;20053;-70
2022/12/19 02:51:56;;;;;;;50.92;22.88;;;;;;;;;;5053711;28;20578;-70
2022/12/19 02:54:23;;;;;;;64.45;25.45;;;;;;;;;;5053381;28;20049;-70
2022/12/19 02:57:05;;;;;;;55.20;22.63;;;;;;;;;;5047704;28;20123;-70
2022/12/19 02:59:40;;;;;;;54.33;23.30;;;;;;;;;;5053745;28;20077;-71
2022/12/19 03:02:16;;;;;;;57.42;23.40;;;;;;;;;;5046114;28;20060;-71
2022/12/19 03:04:43;;;;;;;;;;;;;;;;;;5051257;28;20108;-70
2022/12/19 03:07:15;;;;;;;44.75;21.60;;;;;;;;;;5055292;28;46195;-70
2022/12/19 03:10:02;;;;;;;55.10;22.38;;;;;;;;;;5061722;28;20088;-71
2022/12/19 03:12:31;;;;;;;49.65;21.55;;;;;;;;;;5061654;28;20651;-71
2022/12/19 03:14:58;;;;;;;57.88;23.10;;;;;;;;;;5042507;28;20863;-71
2022/12/19 03:17:25;;;;;;;54.08;22.67;;;;;;;;;;5050515;28;20057;-70
2022/12/19 03:19:51;;;;;;;52.80;22.92;;;;;;;;;;5037985;28;20056;-70
2022/12/19 03:22:17;;;;;;;66.63;24.63;;;;;;;;;;5049474;28;20056;-71
2022/12/19 03:24:44;;;;;;;64.65;24.48;;;;;;;;;;5062422;28;20049;-72
2022/12/19 03:27:13;;;;;;;61.40;24.60;;;;;;;;;;5062348;28;20057;-71
2022/12/19 03:29:46;;;;;;;52.65;24.13;;;;;;;;;;5061441;28;20070;-70
2022/12/19 03:32:13;;;;;;;62.13;24.27;;;;;;;;;;5063259;28;20064;-71
2022/12/19 03:34:45;;;;;;;46.33;22.15;;;;;;;;;;5060359;28;20115;-70
2022/12/19 03:37:13;;;;;;;55.55;22.90;;;;;;;;;;5061708;28;20562;-70
2022/12/19 03:39:41;;;;;;;52.72;23.20;;;;;;;;;;5061782;28;20057;-71
2022/12/19 03:44:54;;;;;;;64.00;24.10;;;;;;;;;;5047500;28;20053;-71
2022/12/19 03:47:31;;;;;;;50.30;23.20;;;;;;;;;;5044338;28;20057;-70
2022/12/19 03:49:57;;;;;;;58.20;21.73;;;;;;;;;;5045210;28;20059;-70
2022/12/19 03:52:44;;;;;;;57.00;23.42;;;;;;;;;;5061371;28;20053;-69
2022/12/19 03:55:18;;;;;;;47.10;20.38;;;;;;;;;;5067002;28;20068;-71
2022/12/19 03:58:14;;;;;;;53.28;22.25;;;;;;;;;;5058921;28;20063;-70
2022/12/19 04:00:42;;;;;;;49.08;21.13;;;;;;;;;;5042298;28;20061;-70
2022/12/19 04:03:09;;;;;;;54.20;21.08;;;;;;;;;;5061307;28;20053;-71
2022/12/19 04:05:37;;;;;;;51.88;21.40;;;;;;;;;;5066277;28;20060;-71
2022/12/19 04:08:04;;;;;;;51.00;19.95;;;;;;;;;;5051977;28;20084;-71
2022/12/19 04:10:33;;;;;;;52.92;21.33;;;;;;;;;;5063455;28;20044;-70
2022/12/19 04:13:03;;;;;;;41.63;19.88;;;;;;;;;;5060893;28;20056;-70
2022/12/19 04:15:46;;;;;;;46.33;19.27;;;;;;;;;;5057242;28;20048;-70
2022/12/19 04:18:13;;;;;;;44.40;18.20;;;;;;;;;;5045482;28;20057;-71
2022/12/19 04:20:43;;;;;;;42.78;18.58;;;;;;;;;;5050020;28;20057;-70
2022/12/19 04:23:15;;;;;;;31.38;15.93;;;;;;;;;;5046948;28;20061;-71
2022/12/19 04:25:46;;;;;;;44.25;19.27;;;;;;;;;;5045230;28;20539;-71
2022/12/19 04:28:15;;;;;;;34.40;16.33;;;;;;;;;;5045014;28;20049;-72
2022/12/19 04:30:43;;;;;;;39.83;17.77;;;;;;;;;;5064342;28;20049;-71
2022/12/19 04:33:10;;;;;;;34.15;16.95;;;;;;;;;;5066541;28;20049;-71
2022/12/19 04:35:37;;;;;;;36.05;17.40;;;;;;;;;;5062607;28;20514;-71
2022/12/19 04:38:03;;;;;;;34.58;15.70;;;;;;;;;;5053675;28;20495;-70
2022/12/19 04:40:32;;;;;;;36.17;16.45;;;;;;;;;;5067532;28;20049;-71
2022/12/19 04:43:07;;;;;;;42.08;18.42;;;;;;;;;;5067811;28;20051;-71
2022/12/19 04:45:33;;;;;;;33.85;16.95;;;;;;;;;;5053555;28;20057;-71
2022/12/19 04:48:01;;;;;;;37.55;17.02;;;;;;;;;;5056477;28;20092;-72
2022/12/19 04:50:27;;;;;;;40.70;19.20;;;;;;;;;;5057723;28;20132;-72
2022/12/19 04:52:53;;;;;;;39.13;16.45;;;;;;;;;;5063695;28;20064;-70
2022/12/19 04:55:22;;;;;;;43.83;18.77;;;;;;;;;;5058136;28;20057;-70
2022/12/19 04:57:49;;;;;;;45.38;18.40;;;;;;;;;;5060864;28;20145;-70
2022/12/19 05:00:15;;;;;;;35.38;17.05;;;;;;;;;;5059440;28;20140;-70
2022/12/19 05:02:43;;;;;;;43.75;19.30;;;;;;;;;;5048415;28;20054;-70
2022/12/19 05:05:09;;;;;;;46.17;17.65;;;;;;;;;;5048527;28;20435;-71
2022/12/19 05:07:36;;;;;;;44.05;18.15;;;;;;;;;;5053161;28;20081;-70
2022/12/19 05:10:03;;;;;;;45.83;18.35;;;;;;;;;;5062722;28;20053;-72
2022/12/19 05:12:29;;;;;;;40.03;18.25;;;;;;;;;;5064290;28;20045;-71
2022/12/19 05:14:56;;;;;;;38.33;18.73;;;;;;;;;;5060928;28;20060;-70
2022/12/19 05:17:22;;;;;;;40.47;17.95;;;;;;;;;;5061533;28;20050;-70
2022/12/19 05:19:48;;;;;;;45.25;17.30;;;;;;;;;;5064798;28;20530;-70
2022/12/19 05:22:15;;;;;;;37.53;15.35;;;;;;;;;;5063043;28;20159;-70
2022/12/19 05:24:41;;;;;;;41.35;17.23;;;;;;;;;;5046761;28;20060;-70
2022/12/19 05:27:07;;;;;;;32.97;16.38;;;;;;;;;;5054611;28;20049;-71
2022/12/19 05:29:34;;;;;;;44.80;16.50;;;;;;;;;;5050284;28;20080;-70
2022/12/19 05:32:00;;;;;;;33.55;16.52;;;;;;;;;;5065784;28;20678;-70
2022/12/19 05:34:27;;;;;;;39.33;15.40;;;;;;;;;;5063162;28;20061;-70
2022/12/19 05:36:53;;;;;;;36.72;15.63;;;;;;;;;;5063965;28;20490;-70
2022/12/19 05:39:20;;;;;;;29.63;14.20;;;;;;;;;;5052398;28;20058;-69
2022/12/19 05:41:46;;;;;;;41.08;15.82;;;;;;;;;;5047148;28;20057;-70
2022/12/19 05:44:14;;;;;;;33.78;14.98;;;;;;;;;;5061903;28;20483;-71
2022/12/19 05:46:41;;;;;;;29.27;13.73;;;;;;;;;;5055296;28;20054;-70
2022/12/19 05:49:08;;;;;;;38.20;16.58;;;;;;;;;;5044861;28;20049;-71
2022/12/19 05:51:34;;;;;;;35.85;15.68;;;;;;;;;;5052194;28;20061;-71
2022/12/19 05:54:00;;;;;;;44.40;16.52;;;;;;;;;;5053869;28;20282;-69
2022/12/19 05:56:27;;;;;;;35.17;15.38;;;;;;;;;;5052282;28;20060;-71
2022/12/19 05:58:53;;;;;;;34.33;14.27;;;;;;;;;;5056606;28;20068;-71
2022/12/19 06:01:21;;;;;;;34.00;15.38;;;;;;;;;;5066047;28;20594;-70
2022/12/19 06:03:47;;;;;;;35.83;15.57;;;;;;;;;;5062199;28;20057;-69
2022/12/19 06:06:15;;;;;;;35.28;15.38;;;;;;;;;;5056285;28;20099;-69
2022/12/19 06:08:42;;;;;;;38.40;15.75;;;;;;;;;;5063189;28;20052;-68
2022/12/19 06:11:10;;;;;;;34.78;15.02;;;;;;;;;;5062181;28;20374;-70
2022/12/19 06:13:37;;;;;;;40.88;16.60;;;;;;;;;;5061281;28;20053;-69
2022/12/19 06:16:05;;;;;;;36.35;15.73;;;;;;;;;;5063595;28;20095;-69
2022/12/19 06:18:32;;;;;;;38.97;15.00;;;;;;;;;;5062658;28;20077;-69
2022/12/19 06:21:03;;;;;;;33.55;15.13;;;;;;;;;;5056159;28;20119;-69
2022/12/19 06:23:30;;;;;;;39.22;17.13;;;;;;;;;;5059057;28;20144;-69
2022/12/19 06:25:57;;;;;;;36.65;16.60;;;;;;;;;;5059545;28;20104;-69
2022/12/19 06:28:24;;;;;;;42.35;17.30;;;;;;;;;;5061070;28;20060;-71
2022/12/19 06:30:50;;;;;;;41.13;17.00;;;;;;;;;;5069965;28;20053;-69
2022/12/19 06:33:17;;;;;;;32.45;16.27;;;;;;;;;;5062900;28;20056;-71
2022/12/19 06:35:43;;;;;;;34.80;16.05;;;;;;;;;;5062501;28;20075;-69
2022/12/19 06:38:09;;;;;;;39.65;15.48;;;;;;;;;;5069231;28;20057;-70
2022/12/19 06:43:25;;;;;;;44.40;17.75;;;;;;;;;;5062894;28;20052;-70
2022/12/19 06:45:51;;;;;;;30.42;13.90;;;;;;;;;;5050430;28;20054;-70
2022/12/19 06:48:18;;;;;;;34.28;16.77;;;;;;;;;;5052499;28;20045;-70
2022/12/19 06:50:44;;;;;;;41.55;17.00;;;;;;;;;;5049024;28;20076;-68
2022/12/19 06:53:10;;;;;;;33.15;16.50;;;;;;;;;;5064396;28;20068;-68
2022/12/19 06:55:38;;;;;;;41.40;15.25;;;;;;;;;;5056940;28;20045;-67
2022/12/19 06:58:04;;;;;;;36.33;17.17;;;;;;;;;;5046267;28;20288;-67
2022/12/19 07:00:33;;;;;;;35.97;16.88;;;;;;;;;;5043943;28;20736;-67
2022/12/19 07:03:00;;;;;;;28.92;14.70;;;;;;;;;;5063997;28;20617;-68
2022/12/19 07:05:28;;;;;;;36.95;16.35;;;;;;;;;;5057915;28;20085;-67
2022/12/19 07:07:54;;;;;;;40.17;17.38;;;;;;;;;;5054727;28;20063;-68
2022/12/19 07:10:21;;;;;;;36.45;17.33;;;;;;;;;;5062827;28;20130;-69
2022/12/19 07:12:47;;;;;;;41.10;20.13;;;;;;;;;;5060816;28;20059;-68
2022/12/19 07:15:14;;;;;;;40.30;18.77;;;;;;;;;;5063302;28;20064;-67
2022/12/19 07:17:41;;;;;;;39.33;20.42;;;;;;;;;;5052036;28;20057;-68
2022/12/19 07:20:07;;;;;;;44.35;20.67;;;;;;;;;;5057819;28;20053;-70
2022/12/19 07:22:34;;;;;;;37.40;18.30;;;;;;;;;;5068068;28;20052;-68
2022/12/19 07:25:01;;;;;;;40.13;18.42;;;;;;;;;;5060656;28;20470;-67
2022/12/19 07:27:27;;;;;;;41.72;20.08;;;;;;;;;;5057609;28;20063;-69
2022/12/19 07:30:01;;;;;;;37.95;18.88;;;;;;;;;;5069949;28;20067;-71
2022/12/19 07:32:28;;;;;;;38.25;20.52;;;;;;;;;;5062317;28;20338;-67
2022/12/19 07:34:54;;;;;;;35.28;19.48;;;;;;;;;;5060905;28;20049;-68
2022/12/19 07:37:20;;;;;;;31.08;16.90;;;;;;;;;;5066697;28;20053;-69
2022/12/19 07:39:47;;;;;;;39.05;20.33;;;;;;;;;;5044364;28;20783;-67
2022/12/19 07:42:14;;;;;;;34.13;17.77;;;;;;;;;;5054022;28;20056;-69
2022/12/19 07:44:40;;;;;;;44.70;24.30;;;;;;;;;;5057990;28;20065;-68
2022/12/19 07:47:07;;;;;;;44.15;19.10;;;;;;;;;;5048661;28;20140;-68
2022/12/19 07:49:35;;;;;;;37.75;18.05;;;;;;;;;;5061504;28;20103;-69
2022/12/19 07:52:01;;;;;;;33.55;18.58;;;;;;;;;;5060937;28;20143;-68
2022/12/19 07:54:27;;;;;;;38.83;21.73;;;;;;;;;;5057744;28;20059;-70
2022/12/19 07:56:54;;;;;;;36.47;18.05;;;;;;;;;;5069936;28;20060;-70
2022/12/19 07:59:20;;;;;;;27.65;14.18;;;;;;;;;;5066405;28;20049;-68
2022/12/19 08:01:54;;;;;;;39.83;15.93;;;;;;;;;;5059878;28;20065;-69
2022/12/19 08:04:21;;;;;;;32.00;17.15;;;;;;;;;;5060835;28;20382;-68
2022/12/19 08:06:47;;;;;;;34.35;16.55;;;;;;;;;;5058244;28;20511;-69
2022/12/19 08:09:14;;;;;;;34.63;15.98;;;;;;;;;;5074217;28;20055;-69
2022/12/19 08:11:41;;;;;;;31.50;15.57;;;;;;;;;;5077018;28;20517;-67
2022/12/19 08:14:07;;;;;;;32.10;15.63;;;;;;;;;;5055947;28;20080;-68
2022/12/19 08:16:35;;;;;;;27.38;13.13;;;;;;;;;;5082189;28;20052;-68
2022/12/19 08:19:21;;;;;;;25.60;15.20;;;;;;;;;;5042678;28;20139;-69
2022/12/19 08:21:52;;;;;;;28.52;13.65;;;;;;;;;;5042298;28;20547;-68
2022/12/19 08:24:19;;;;;;;27.35;11.07;;;;;;;;;;5054505;28;20087;-67
2022/12/19 08:26:45;;;;;;;26.75;15.27;;;;;;;;;;5063181;28;20059;-68
2022/12/19 08:29:13;;;;;;;26.27;15.32;;;;;;;;;;5067304;28;20050;-68
2022/12/19 08:31:39;;;;;;;27.02;15.77;;;;;;;;;;5076787;28;20143;-68
2022/12/19 08:34:06;;;;;;;29.27;14.73;;;;;;;;;;5063920;28;20055;-69
2022/12/19 08:36:33;;;;;;;27.63;14.32;;;;;;;;;;5060086;28;20065;-69
2022/12/19 08:38:59;;;;;;;26.25;14.73;;;;;;;;;;5061735;28;20114;-68
2022/12/19 08:41:25;;;;;;;29.52;15.48;;;;;;;;;;5061810;28;20045;-68
2022/12/19 08:43:53;;;;;;;26.77;15.25;;;;;;;;;;5061199;28;20087;-69
2022/12/19 08:46:19;;;;;;;23.35;13.82;;;;;;;;;;5061428;28;20049;-69
2022/12/19 08:48:46;;;;;;;28.40;14.57;;;;;;;;;;5059523;28;20049;-69
2022/12/19 08:51:14;;;;;;;30.48;17.27;;;;;;;;;;5064092;28;20427;-70
2022/12/19 08:53:41;;;;;;;21.80;13.45;;;;;;;;;;5064079;28;20056;-67
2022/12/19 08:56:15;;;;;;;25.02;15.55;;;;;;;;;;5070996;28;20102;-67
2022/12/19 08:58:42;;;;;;;23.08;13.80;;;;;;;;;;5082178;28;20087;-67
2022/12/19 09:01:12;;;;;;;24.52;13.93;;;;;;;;;;5075508;28;20521;-69
2022/12/19 09:03:39;;;;;;;21.60;12.82;;;;;;;;;;5072660;28;20143;-69
2022/12/19 09:06:25;;;;;;;19.75;13.20;;;;;;;;;;5062838;28;20168;-68
2022/12/19 09:08:53;;;;;;;22.52;12.18;;;;;;;;;;5068783;28;20060;-68
2022/12/19 09:11:25;;;;;;;22.40;13.80;;;;;;;;;;5065495;28;20059;-69
2022/12/19 09:13:53;;;;;;;21.08;12.35;;;;;;;;;;5077420;28;20088;-68
2022/12/19 09:16:21;;;;;;;17.65;11.48;;;;;;;;;;5067377;28;20146;-68
2022/12/19 09:18:49;;;;;;;18.85;10.57;;;;;;;;;;5061838;28;20049;-68
2022/12/19 09:21:16;;;;;;;24.10;11.45;;;;;;;;;;5061619;28;20065;-69
2022/12/19 09:23:46;;;;;;;19.02;12.25;;;;;;;;;;5073032;28;20661;-69
2022/12/19 09:26:15;;;;;;;19.02;10.98;;;;;;;;;;5059882;28;20989;-69
2022/12/19 09:28:41;;;;;;;18.58;9.98;;;;;;;;;;5063535;28;20143;-68
2022/12/19 09:31:14;;;;;;;20.83;11.90;;;;;;;;;;5059203;28;20143;-68
2022/12/19 09:33:41;;;;;;;19.42;10.70;;;;;;;;;;5055524;28;20049;-67
2022/12/19 09:36:17;;;;;;;19.33;11.00;;;;;;;;;;5063995;28;20515;-68
2022/12/19 09:38:44;;;;;;;18.48;10.65;;;;;;;;;;5064090;28;20072;-69
2022/12/19 09:41:29;;;;;;;20.58;11.15;;;;;;;;;;5059106;28;20060;-69
2022/12/19 09:44:02;;;;;;;20.45;10.48;;;;;;;;;;5063794;28;20057;-67
2022/12/19 09:46:40;;;;;;;19.30;10.68;;;;;;;;;;5070670;28;20800;-68
2022/12/19 09:49:13;;;;;;;16.23;8.73;;;;;;;;;;5067965;28;20049;-69
2022/12/19 09:51:51;;;;;;;20.60;10.15;;;;;;;;;;5061631;28;20499;-68
2022/12/19 09:54:22;;;;;;;17.35;9.80;;;;;;;;;;5062783;28;20139;-66
2022/12/19 09:56:51;;;;;;;22.05;11.60;;;;;;;;;;5073364;28;20056;-66
2022/12/19 09:59:31;;;;;;;13.68;10.00;;;;;;;;;;5068672;28;20443;-67
2022/12/19 10:02:14;;;;;;;16.67;9.57;;;;;;;;;;5069796;28;20572;-67
2022/12/19 10:04:46;;;;;;;24.33;10.18;;;;;;;;;;5066777;28;20048;-68
2022/12/19 10:07:17;;;;;;;16.88;10.27;;;;;;;;;;5062197;28;20064;-69
2022/12/19 10:10:04;;;;;;;18.13;10.68;;;;;;;;;;5067900;28;20048;-68
2022/12/19 10:12:53;;;;;;;21.13;9.98;;;;;;;;;;5053709;28;20080;-66
2022/12/19 10:15:41;;;;;;;16.95;9.52;;;;;;;;;;5078286;28;20076;-65
2022/12/19 10:18:17;;;;;;;16.02;9.45;;;;;;;;;;5072587;28;20052;-66
2022/12/19 10:20:51;;;;;;;15.32;9.90;;;;;;;;;;5061214;28;20060;-66
2022/12/19 10:23:24;;;;;;;13.75;8.77;;;;;;;;;;5060023;28;20053;-66
2022/12/19 10:25:54;;;;;;;15.52;9.27;;;;;;;;;;5062695;28;20077;-68
2022/12/19 10:28:39;;;;;;;16.15;9.38;;;;;;;;;;5068025;28;20088;-66
2022/12/19 10:31:21;;;;;;;26.05;10.68;;;;;;;;;;5068683;28;20461;-66
2022/12/19 10:33:54;;;;;;;11.30;8.52;;;;;;;;;;5071147;28;20084;-67
2022/12/19 10:36:21;;;;;;;15.82;9.65;;;;;;;;;;5060115;28;20792;-66
2022/12/19 10:39:13;;;;;;;10.25;7.85;;;;;;;;;;5070064;28;20107;-66
2022/12/19 10:41:41;;;;;;;16.70;8.80;;;;;;;;;;5074096;28;20049;-68
2022/12/19 10:44:11;;;;;;;14.70;8.05;;;;;;;;;;5066476;28;20453;-66
2022/12/19 10:46:37;;;;;;;13.27;8.23;;;;;;;;;;5065955;28;20044;-67
2022/12/19 10:49:13;;;;;;;12.40;7.53;;;;;;;;;;5066829;28;20062;-68
2022/12/19 10:51:39;;;;;;;;;;;;;;;;;;5066857;28;20088;-65
2022/12/19 10:54:05;;;;;;;10.35;6.57;;;;;;;;;;5052617;28;41921;-68
2022/12/19 10:56:32;;;;;;;9.65;7.13;;;;;;;;;;5048761;28;20749;-68
2022/12/19 10:59:14;;;;;;;12.27;7.50;;;;;;;;;;5048718;28;20056;-68
2022/12/19 11:01:41;;;;;;;11.07;6.38;;;;;;;;;;5061577;28;20056;-67
2022/12/19 11:04:29;;;;;;;9.10;6.63;;;;;;;;;;5066492;28;20080;-67
2022/12/19 11:07:02;;;;;;;10.45;6.60;;;;;;;;;;5062852;28;20061;-68
2022/12/19 11:09:28;;;;;;;15.15;7.22;;;;;;;;;;5054876;28;20056;-68
2022/12/19 11:11:59;;;;;;;13.27;6.72;;;;;;;;;;5042695;28;20049;-67
2022/12/19 11:14:50;;;;;;;17.15;7.97;;;;;;;;;;5056069;28;20566;-67
2022/12/19 11:17:36;;;;;;;11.07;6.65;;;;;;;;;;5061620;28;20525;-67
2022/12/19 11:20:23;;;;;;;11.52;7.60;;;;;;;;;;5064234;28;20052;-67
2022/12/19 11:23:11;;;;;;;9.55;6.65;;;;;;;;;;5082033;28;20143;-67
2022/12/19 11:26:00;;;;;;;13.90;7.75;;;;;;;;;;5047074;28;20143;-67
2022/12/19 11:28:46;;;;;;;11.13;6.50;;;;;;;;;;5052036;28;20507;-67
2022/12/19 11:31:35;;;;;;;10.23;7.00;;;;;;;;;;5067782;28;20049;-69
2022/12/19 11:34:22;;;;;;;12.52;7.68;;;;;;;;;;5052016;28;20068;-70
2022/12/19 11:37:09;;;;;;;12.27;8.40;;;;;;;;;;5062513;28;20053;-70
2022/12/19 11:39:40;;;;;;;9.55;6.63;;;;;;;;;;5042134;28;20053;-69
2022/12/19 11:42:10;;;;;;;9.93;7.45;;;;;;;;;;5045883;28;20057;-70
2022/12/19 11:44:39;;;;;;;12.48;7.82;;;;;;;;;;5064018;28;20431;-67
2022/12/19 11:47:21;;;;;;;11.00;8.13;;;;;;;;;;5047334;28;20538;-70
2022/12/19 11:49:50;;;;;;;13.82;8.82;;;;;;;;;;5044593;28;20071;-70
2022/12/19 11:52:22;;;;;;;10.35;8.82;;;;;;;;;;5053206;28;20088;-70
2022/12/19 11:55:23;;;;;;;11.18;8.00;;;;;;;;;;5053600;28;20589;-70
2022/12/19 11:57:50;;;;;;;14.05;9.13;;;;;;;;;;5042509;28;20418;-68
2022/12/19 12:00:19;;;;;;;10.32;7.65;;;;;;;;;;5071078;28;20057;-69
2022/12/19 12:02:48;;;;;;;10.65;7.60;;;;;;;;;;5056120;28;20531;-68
2022/12/19 12:05:21;;;;;;;11.18;8.00;;;;;;;;;;5062642;28;20052;-69
2022/12/19 12:07:56;;;;;;;10.02;6.85;;;;;;;;;;5062349;28;20053;-69
2022/12/19 12:10:47;;;;;;;13.63;7.85;;;;;;;;;;5048198;28;20049;-69
2022/12/19 12:13:34;;;;;;;9.13;7.05;;;;;;;;;;5061456;28;20061;-69
2022/12/19 12:16:24;;;;;;;8.48;6.55;;;;;;;;;;5059907;28;20608;-69
2022/12/19 12:19:23;;;;;;;7.10;5.72;;;;;;;;;;5056981;28;20303;-70
2022/12/19 12:22:28;;;;;;;11.38;6.50;;;;;;;;;;5052911;28;20064;-69
2022/12/19 12:25:33;;;;;;;9.63;6.80;;;;;;;;;;5063121;28;20053;-68
2022/12/19 12:28:25;;;;;;;9.50;4.85;;;;;;;;;;5044084;28;20053;-70
2022/12/19 12:31:21;;;;;;;10.38;5.53;;;;;;;;;;5047493;28;20523;-69
2022/12/19 12:34:26;;;;;;;9.10;5.97;;;;;;;;;;5054617;28;20052;-69
2022/12/19 12:37:20;;;;;;;7.72;6.13;;;;;;;;;;5064369;28;20153;-70
2022/12/19 12:40:25;;;;;;;7.63;5.43;;;;;;;;;;5056992;28;20379;-69
2022/12/19 12:42:57;;;;;;;9.20;5.28;;;;;;;;;;5062745;28;20041;-69
2022/12/19 12:45:34;;;;;;;7.78;5.88;;;;;;;;;;5061798;28;20550;-69
2022/12/19 12:48:01;;;;;;;;;;;;;;;;;;5052297;28;20088;-66
2022/12/19 12:50:27;;;;;;;10.30;5.68;;;;;;;;;;5044665;28;42507;-68
2022/12/19 12:52:55;;;;;;;12.40;5.68;;;;;;;;;;5048234;28;20057;-69
2022/12/19 12:55:30;;;;;;;11.57;5.72;;;;;;;;;;5079458;28;20052;-70
2022/12/19 12:57:57;;;;;;;10.83;5.87;;;;;;;;;;5079866;28;20489;-69
2022/12/19 13:00:23;;;;;;;11.95;5.78;;;;;;;;;;5067502;28;20849;-69
2022/12/19 13:02:55;;;;;;;6.22;4.93;;;;;;;;;;5065416;28;20505;-68
2022/12/19 13:06:00;;;;;;;4.80;4.10;;;;;;;;;;5048474;28;20135;-69
2022/12/19 13:08:46;;;;;;;6.35;4.75;;;;;;;;;;5021159;28;20268;-67
2022/12/19 13:14:04;;;;;;;7.47;4.85;;;;;;;;;;5027311;28;20562;-68
2022/12/19 13:16:42;;;;;;;13.88;4.65;;;;;;;;;;5017693;28;20093;-67
2022/12/19 13:19:13;;;;;;;12.57;4.80;;;;;;;;;;5004551;28;20089;-67
2022/12/19 13:21:44;;;;;;;;;;;;;;;;;;5022120;28;20567;-66
2022/12/19 13:24:13;;;;;;;5.95;4.30;;;;;;;;;;5019842;28;44770;-69
2022/12/19 13:26:43;;;;;;;7.22;4.40;;;;;;;;;;5006155;28;20050;-68
2022/12/19 13:29:29;;;;;;;8.18;4.50;;;;;;;;;;5006587;28;20444;-67
2022/12/19 13:32:12;;;;;;;5.72;4.28;;;;;;;;;;5018422;28;20050;-68
2022/12/19 13:34:38;;;;;;;6.75;4.00;;;;;;;;;;5017386;28;20051;-68
2022/12/19 13:37:35;;;;;;;6.55;4.10;;;;;;;;;;5017795;28;20582;-68
2022/12/19 13:40:32;;;;;;;5.82;4.05;;;;;;;;;;5063614;28;20061;-66
2022/12/19 13:46:06;;;;;;;6.03;4.55;;;;;;;;;;5060913;28;20418;-68
2022/12/19 13:48:39;;;;;;;4.97;4.10;;;;;;;;;;5058507;28;20052;-68
2022/12/19 13:51:06;;;;;;;4.47;3.63;;;;;;;;;;5067259;28;20059;-70
2022/12/19 13:53:33;;;;;;;5.45;4.55;;;;;;;;;;5060917;28;20454;-68
2022/12/19 13:56:03;;;;;;;6.30;4.35;;;;;;;;;;5060564;28;20053;-67
2022/12/19 13:58:36;;;;;;;7.10;4.30;;;;;;;;;;5055460;28;20053;-68
2022/12/19 14:01:08;;;;;;;6.15;4.40;;;;;;;;;;5066857;28;20065;-67
2022/12/19 14:03:47;;;;;;;12.27;5.78;;;;;;;;;;5075805;28;20509;-67
2022/12/19 14:06:19;;;;;;;8.50;4.47;;;;;;;;;;5058679;28;20609;-68
2022/12/19 14:08:46;;;;;;;8.25;4.25;;;;;;;;;;5057335;28;20533;-69
2022/12/19 14:11:40;;;;;;;9.10;5.20;;;;;;;;;;5067345;28;20562;-68
2022/12/19 14:17:12;;;;;;;6.50;4.40;;;;;;;;;;5072916;28;20139;-68
2022/12/19 14:19:41;;;;;;;6.18;4.28;;;;;;;;;;5071182;28;20056;-67
2022/12/19 14:22:11;;;;;;;9.15;5.07;;;;;;;;;;5066204;28;21048;-68
2022/12/19 14:24:54;;;;;;;6.55;4.55;;;;;;;;;;5062744;28;20081;-68
2022/12/19 14:27:52;;;;;;;8.05;4.57;;;;;;;;;;5054812;28;20053;-68
2022/12/19 14:30:40;;;;;;;11.00;4.68;;;;;;;;;;5064630;28;20049;-68
2022/12/19 14:33:09;;;;;;;7.13;4.70;;;;;;;;;;5078627;28;20056;-69
2022/12/19 14:35:56;;;;;;;7.97;3.88;;;;;;;;;;5063629;28;20052;-67
2022/12/19 14:38:39;;;;;;;7.45;4.18;;;;;;;;;;5084304;28;20515;-68
2022/12/19 14:44:15;;;;;;;10.25;4.53;;;;;;;;;;5084066;28;20059;-69
2022/12/19 14:47:11;;;;;;;7.13;4.40;;;;;;;;;;5054808;28;20526;-68
2022/12/19 14:49:58;;;;;;;6.07;4.45;;;;;;;;;;5066115;28;20067;-68
2022/12/19 14:52:49;;;;;;;5.63;4.22;;;;;;;;;;5075225;28;20243;-67
2022/12/19 14:55:39;;;;;;;5.05;4.18;;;;;;;;;;5070050;28;20067;-68
2022/12/19 14:58:30;;;;;;;7.15;4.43;;;;;;;;;;5066847;28;20080;-69
2022/12/19 15:01:21;;;;;;;5.40;4.00;;;;;;;;;;5075303;28;20096;-67
2022/12/19 15:03:55;;;;;;;8.07;4.13;;;;;;;;;;5083460;28;20044;-67
2022/12/19 15:06:43;;;;;;;4.28;3.30;;;;;;;;;;5054404;28;20056;-68
2022/12/19 15:09:30;;;;;;;5.57;4.07;;;;;;;;;;5062382;28;20048;-67
2022/12/19 15:15:44;;;;;;;4.45;3.67;;;;;;;;;;5069878;28;20075;-67